Danville, WA (99121)

8:39 PM PDT on October 21, 2014 (GMT -0700)
IBCGRAND2 | Change Station
CLOSE
Current Station
Personal Weather Station
Location: Grand Forks, BC
Elevation: 1686 ft
Nearby Weather Stations

Elev 1686 ft 49.03 °N, 118.45 °W | Updated 24 seconds ago

Mostly Cloudy
Mostly Cloudy
48.7 °F
Feels Like 49 °F
N
0.0
Wind Variable Wind from West
Gusts 0.0 mph

Today
High -- | Low -- °F
--% Chance of Precip.
Yesterday
High -- | Low -- °F
Precip. -- in
7:24 AM 5:52 PM
Waning Crescent, 3% visible
Pressure 29.90 in
Visibility 10.0 miles
Clouds Scattered Clouds 9000 ft
Windchill 49 °F
Dew Point 45 °F
Humidity 86%
Rainfall 0.00 in
Snow Depth Not available.
UV 0 out of 12
Pollen 2.00 out of 12
Air Quality Not available.
Flu Activity Sporadic
METAR KOMK 220253Z AUTO 15007KT 10SM SCT090 13/05 A2989 RMK AO2 SLP123 T01330050 53007

More Conditions Fewer Conditions

Pressure 29.90 in
Visibility 10.0 miles
Clouds Scattered Clouds 9000 ft
Windchill 49 °F
Dew Point 45 °F
Humidity 86%
Rainfall 0.00 in
Snow Depth Not available.
UV 0 out of 12
Pollen 2.00 out of 12
Air Quality Not available.
Flu Activity Sporadic
METAR KOMK 220253Z AUTO 15007KT 10SM SCT090 13/05 A2989 RMK AO2 SLP123 T01330050 53007

More Conditions Fewer Conditions

10-Day Weather Forecast

Almanac

Astronomy

Oct. 21, 2014 Rise Set
Actual Time 7:24 AM PDT 5:52 PM PDT
Civil Twilight 6:51 AM PDT 6:24 PM PDT
Nautical Twilight 6:14 AM PDT 7:01 PM PDT
Astronomical Twilight 5:38 AM PDT 7:38 PM PDT
Moon 5:02 AM PDT (10/21) 4:57 PM PDT (10/21)
Length of Visible Light 11h 32m
Length of Day
10h 28m
Tomorrow will be 3m 26s shorter.
Waning Crescent, 3% of the Moon is Illuminated
Today
Waning Crescent
Oct 23
New
Oct 30
First Quarter
Nov 6
Full
Nov 14
Last Quarter

Today's Extremes

State Highs State Lows

Community

WunderPhotos

Upload Photos

1,763,874 photos uploaded!

Nearby

Snow Depth

Station Depth Elevation
Moses Mountain 0 in 5300 ft
Bunchgrass Meadow 0 in 5000 ft
Harts Pass 0 in 6500 ft
Quartz Peak 1 in 4700 ft
Park Creek Ridge 0 in 4600 ft

Earthquake Activity

City Distance Mag. Time & Date
No recent earthquake activity has been reported nearby.
Minimum magnitude displayed is 2.5.

Coastal Water Temperatures

Place Temperature
No Stations Reporting

Nearby Weather Stations